createdAt,value
2018-04-12T00:00:31.624Z,54.90
2018-04-12T00:01:31.543Z,57.50
2018-04-12T00:03:24.820Z,51.60
2018-04-12T00:04:24.756Z,52.10
2018-04-12T00:06:18.149Z,50.20
2018-04-12T00:07:17.956Z,51.00
2018-04-12T00:09:11.334Z,49.60
2018-04-12T00:10:11.160Z,54.00
2018-04-12T00:12:04.446Z,53.10
2018-04-12T00:13:04.362Z,50.60
2018-04-12T00:14:57.633Z,49.10
2018-04-12T00:15:57.567Z,48.00
2018-04-12T00:17:50.853Z,53.20
2018-04-12T00:18:50.768Z,53.10
2018-04-12T00:20:44.166Z,48.50
2018-04-12T00:21:43.972Z,55.00
2018-04-12T00:23:37.316Z,48.70
2018-04-12T00:24:37.247Z,46.90
2018-04-12T00:26:30.534Z,55.20
2018-04-12T00:27:30.450Z,49.40
2018-04-12T00:29:23.720Z,52.30
2018-04-12T00:30:23.652Z,48.50
2018-04-12T00:32:16.944Z,45.20
2018-04-12T00:33:16.856Z,50.60
2018-04-12T00:35:10.127Z,47.20
2018-04-12T00:36:10.056Z,48.20
2018-04-12T00:38:03.343Z,45.10
2018-04-12T00:39:03.257Z,44.70
2018-04-12T00:40:56.544Z,45.60
2018-04-12T00:41:56.461Z,47.30
2018-04-12T00:43:49.726Z,47.90
2018-04-12T00:44:49.661Z,45.40
2018-04-12T00:46:42.939Z,47.90
2018-04-12T00:47:42.855Z,45.20
2018-04-12T00:49:36.120Z,46.10
2018-04-12T00:50:36.055Z,45.20
2018-04-12T00:52:29.341Z,46.00
2018-04-12T00:53:29.255Z,46.30
2018-04-12T00:55:22.523Z,43.60
2018-04-12T00:56:22.457Z,44.40
2018-04-12T00:58:15.849Z,43.60
2018-04-12T00:59:15.657Z,46.30
2018-04-12T01:01:09.559Z,43.70
2018-04-12T01:02:08.859Z,46.20
2018-04-12T01:04:02.127Z,45.60
2018-04-12T01:05:02.062Z,50.80
2018-04-12T01:06:55.337Z,48.90
2018-04-12T01:07:55.254Z,47.00
2018-04-12T01:09:48.521Z,47.00
2018-04-12T01:10:48.455Z,46.90
2018-04-12T01:12:41.739Z,50.10
2018-04-12T01:13:41.660Z,42.10
2018-04-12T01:15:35.030Z,47.40
2018-04-12T01:16:34.857Z,46.90
2018-04-12T01:18:28.142Z,43.30
2018-04-12T01:19:28.059Z,46.20
2018-04-12T01:21:21.452Z,45.10
2018-04-12T01:22:21.258Z,45.40
2018-04-12T01:24:14.529Z,46.60
2018-04-12T01:25:14.459Z,48.40
2018-04-12T01:27:07.855Z,50.60
2018-04-12T01:28:07.651Z,48.50
2018-04-12T01:30:00.920Z,44.80
2018-04-12T01:31:00.852Z,44.90
2018-04-12T01:32:54.138Z,48.80
2018-04-12T01:33:54.052Z,48.00
2018-04-12T01:35:47.323Z,50.90
2018-04-12T01:36:47.252Z,50.60
2018-04-12T01:38:40.651Z,49.30
2018-04-12T01:39:40.451Z,49.40
2018-04-12T01:41:33.865Z,47.50
2018-04-12T01:42:33.654Z,47.00
2018-04-12T01:44:26.921Z,48.00
2018-04-12T01:45:26.853Z,49.90
2018-04-12T01:47:20.133Z,49.80
2018-04-12T01:48:20.047Z,49.60
2018-04-12T01:50:13.420Z,48.30
2018-04-12T01:51:13.251Z,48.30
2018-04-12T01:53:06.537Z,47.20
2018-04-12T01:54:06.453Z,48.10
2018-04-12T01:55:59.723Z,48.70
2018-04-12T01:56:59.653Z,51.00
2018-04-12T01:58:52.939Z,49.90
2018-04-12T01:59:52.853Z,54.80
2018-04-12T02:01:46.231Z,51.90
2018-04-12T02:02:46.052Z,56.00
2018-04-12T02:04:39.448Z,54.20
2018-04-12T02:05:39.254Z,52.30
2018-04-12T02:07:32.535Z,51.10
2018-04-12T02:08:32.447Z,54.00
2018-04-12T02:10:25.717Z,59.10
2018-04-12T02:11:25.651Z,54.90
2018-04-12T02:13:18.931Z,53.10
2018-04-12T02:14:18.850Z,53.90
2018-04-12T02:16:12.119Z,48.20
2018-04-12T02:17:12.052Z,53.20
2018-04-12T02:19:05.340Z,54.20
2018-04-12T02:20:05.251Z,55.30
2018-04-12T02:21:58.517Z,53.80
2018-04-12T02:22:58.450Z,58.00
2018-04-12T02:24:51.843Z,55.80
2018-04-12T02:25:51.651Z,57.10
2018-04-12T02:27:45.042Z,51.90
2018-04-12T02:28:44.848Z,53.20
2018-04-12T02:30:38.216Z,57.20
2018-04-12T02:31:38.040Z,61.20
2018-04-12T02:33:31.433Z,56.50
2018-04-12T02:34:31.249Z,54.30
2018-04-12T02:36:24.514Z,53.70
2018-04-12T02:37:24.447Z,56.60
2018-04-12T02:39:17.840Z,53.90
2018-04-12T02:40:17.650Z,60.00
2018-04-12T02:42:10.912Z,57.20
2018-04-12T02:43:10.845Z,55.60
2018-04-12T02:45:04.134Z,58.10
2018-04-12T02:46:04.045Z,57.60
2018-04-12T02:47:57.436Z,51.50
2018-04-12T02:48:57.250Z,53.60
2018-04-12T02:50:50.515Z,51.70
2018-04-12T02:51:50.448Z,56.30
2018-04-12T02:53:43.734Z,57.90
2018-04-12T02:54:43.648Z,59.00
2018-04-12T02:56:36.914Z,56.80
2018-04-12T02:57:36.846Z,62.10
2018-04-12T02:59:30.131Z,54.40
2018-04-12T03:00:30.044Z,55.40
2018-04-12T03:02:23.317Z,54.90
2018-04-12T03:03:23.250Z,63.30
2018-04-12T03:05:16.533Z,57.50
2018-04-12T03:06:16.448Z,59.20
2018-04-12T03:08:09.735Z,62.10
2018-04-12T03:09:09.651Z,57.90
2018-04-12T03:11:02.912Z,57.90
2018-04-12T03:12:02.844Z,54.80
2018-04-12T03:13:56.129Z,62.90
2018-04-12T03:14:56.043Z,63.10
2018-04-12T03:16:49.305Z,60.60
2018-04-12T03:17:49.232Z,58.90
2018-04-12T03:19:42.522Z,64.80
2018-04-12T03:20:42.431Z,64.30
2018-04-12T03:22:35.805Z,61.60
2018-04-12T03:23:35.628Z,64.00
2018-04-12T03:25:29.021Z,69.90
2018-04-12T03:26:28.831Z,66.70
2018-04-12T03:28:22.108Z,58.90
2018-04-12T03:29:22.023Z,65.80
2018-04-12T03:31:15.291Z,62.80
2018-04-12T03:32:15.221Z,68.60
2018-04-12T03:34:08.613Z,66.80
2018-04-12T03:35:08.418Z,61.90
2018-04-12T03:37:01.674Z,64.80
2018-04-12T03:38:01.607Z,61.10
2018-04-12T03:39:54.997Z,67.70
2018-04-12T03:40:54.806Z,68.80
2018-04-12T03:42:48.069Z,69.30
2018-04-12T03:43:48.004Z,67.90
2018-04-12T03:45:41.393Z,64.40
2018-04-12T03:46:41.199Z,64.10
2018-04-12T03:48:34.616Z,70.90
2018-04-12T03:49:34.464Z,70.80
2018-04-12T03:51:27.663Z,73.00
2018-04-12T03:52:27.596Z,72.70
2018-04-12T03:54:20.879Z,66.60
2018-04-12T03:55:20.796Z,69.10
2018-04-12T03:57:14.052Z,71.00
2018-04-12T03:58:13.982Z,69.90
2018-04-12T04:00:07.267Z,70.80
2018-04-12T04:01:07.180Z,71.30
2018-04-12T04:03:00.446Z,69.30
2018-04-12T04:04:00.378Z,71.20
2018-04-12T04:05:53.778Z,72.20
2018-04-12T04:06:53.581Z,69.10
2018-04-12T04:08:46.860Z,64.50
2018-04-12T04:09:46.776Z,68.20
2018-04-12T04:11:40.148Z,71.10
2018-04-12T04:12:39.973Z,67.90
2018-04-12T04:14:33.281Z,77.90
2018-04-12T04:15:33.172Z,73.90
2018-04-12T04:17:26.544Z,76.40
2018-04-12T04:18:26.370Z,74.50
2018-04-12T04:20:19.653Z,76.30
2018-04-12T04:21:19.573Z,72.00
2018-04-12T04:23:12.946Z,75.80
2018-04-12T04:24:12.768Z,72.30
2018-04-12T04:26:06.159Z,73.40
2018-04-12T04:27:05.962Z,73.90
2018-04-12T04:28:59.355Z,77.00
2018-04-12T04:29:59.160Z,77.20
2018-04-12T04:31:52.568Z,75.70
2018-04-12T04:32:52.359Z,75.20
2018-04-12T04:34:45.643Z,75.40
2018-04-12T04:35:45.557Z,75.10
2018-04-12T04:37:38.815Z,74.50
2018-04-12T04:38:38.748Z,71.30
2018-04-12T04:40:32.137Z,76.20
2018-04-12T04:41:31.943Z,77.20
2018-04-12T04:43:25.332Z,78.90
2018-04-12T04:44:25.141Z,71.90
2018-04-12T04:46:18.537Z,68.40
2018-04-12T04:47:18.349Z,73.80
2018-04-12T04:49:11.631Z,69.90
2018-04-12T04:50:11.548Z,69.50
2018-04-12T04:52:04.810Z,69.80
2018-04-12T04:53:04.743Z,75.30
2018-04-12T04:54:58.051Z,71.80
2018-04-12T04:55:57.941Z,72.90
2018-04-12T04:57:51.207Z,79.10
2018-04-12T04:58:51.138Z,80.70
2018-04-12T05:00:44.442Z,68.70
2018-04-12T05:01:44.353Z,74.20
2018-04-12T05:03:37.639Z,76.00
2018-04-12T05:04:37.555Z,76.00
2018-04-12T05:06:30.948Z,77.50
2018-04-12T05:07:30.752Z,71.70
2018-04-12T05:09:24.144Z,76.20
2018-04-12T05:10:23.951Z,75.40
2018-04-12T05:12:17.219Z,81.10
2018-04-12T05:13:17.152Z,83.20
2018-04-12T05:15:10.548Z,76.70
2018-04-12T05:16:10.350Z,75.60
2018-04-12T05:18:03.616Z,79.50
2018-04-12T05:19:03.550Z,83.00
2018-04-12T05:20:56.827Z,77.80
2018-04-12T05:21:56.744Z,80.40
2018-04-12T05:23:50.031Z,75.10
2018-04-12T05:24:49.941Z,80.60
2018-04-12T05:26:43.239Z,76.90
2018-04-12T05:27:43.156Z,84.70
2018-04-12T05:29:36.441Z,75.70
2018-04-12T05:30:36.355Z,80.30
2018-04-12T05:32:29.622Z,79.00
2018-04-12T05:33:29.554Z,80.80
2018-04-12T05:35:22.844Z,79.70
2018-04-12T05:36:22.756Z,84.40
2018-04-12T05:38:16.045Z,82.10
2018-04-12T05:39:15.973Z,76.00
2018-04-12T05:41:09.368Z,77.50
2018-04-12T05:42:09.169Z,81.30
2018-04-12T05:44:02.577Z,76.00
2018-04-12T05:45:02.369Z,77.80
2018-04-12T05:46:56.471Z,79.00
2018-04-12T05:47:56.408Z,81.00
2018-04-12T05:49:49.689Z,74.80
2018-04-12T05:50:49.604Z,80.10
2018-04-12T05:52:42.871Z,76.70
2018-04-12T05:53:42.804Z,76.60
2018-04-12T05:55:36.092Z,74.80
2018-04-12T05:56:36.007Z,78.40
2018-04-12T05:58:29.271Z,72.30
2018-04-12T05:59:29.207Z,74.60
2018-04-12T06:01:22.598Z,73.00
2018-04-12T06:02:22.401Z,73.20
2018-04-12T06:04:15.671Z,68.00
2018-04-12T06:05:15.585Z,71.20
2018-04-12T06:07:08.844Z,69.90
2018-04-12T06:08:08.778Z,73.50
2018-04-12T06:10:02.055Z,71.00
2018-04-12T06:11:01.969Z,68.40
2018-04-12T06:12:55.345Z,69.40
2018-04-12T06:13:55.170Z,72.90
2018-04-12T06:15:48.456Z,66.80
2018-04-12T06:16:48.371Z,70.10
2018-04-12T06:18:41.748Z,64.60
2018-04-12T06:19:41.582Z,69.80
2018-04-12T06:21:34.862Z,72.90
2018-04-12T06:22:34.776Z,72.30
2018-04-12T06:24:28.174Z,67.50
2018-04-12T06:25:27.977Z,63.90
2018-04-12T06:27:21.353Z,64.40
2018-04-12T06:28:21.170Z,61.80
2018-04-12T06:30:14.565Z,68.50
2018-04-12T06:31:14.371Z,68.90
2018-04-12T06:33:07.641Z,70.40
2018-04-12T06:34:07.574Z,67.00
2018-04-12T06:36:00.860Z,63.80
2018-04-12T06:37:00.775Z,67.20
2018-04-12T06:38:54.045Z,67.70
2018-04-12T06:39:54.025Z,64.80
2018-04-12T06:41:47.263Z,68.00
2018-04-12T06:42:47.178Z,65.50
2018-04-12T06:44:40.470Z,61.20
2018-04-12T06:45:40.381Z,68.10
2018-04-12T06:47:33.641Z,66.80
2018-04-12T06:48:33.576Z,69.30
2018-04-12T06:50:26.970Z,69.20
2018-04-12T06:51:26.777Z,70.30
2018-04-12T06:53:20.157Z,67.00
2018-04-12T06:54:19.972Z,63.60
2018-04-12T06:56:13.246Z,63.80
2018-04-12T06:57:13.166Z,70.20
2018-04-12T06:59:06.420Z,65.00
2018-04-12T07:00:06.354Z,66.00
2018-04-12T07:01:59.631Z,66.90
2018-04-12T07:02:59.547Z,69.10
2018-04-12T07:04:52.822Z,67.30
2018-04-12T07:05:52.786Z,65.80
2018-04-12T07:07:45.996Z,62.00
2018-04-12T07:08:45.929Z,65.20
2018-04-12T07:10:39.207Z,64.10
2018-04-12T07:11:39.121Z,63.70
2018-04-12T07:13:32.495Z,57.90
2018-04-12T07:14:32.352Z,62.80
2018-04-12T07:16:26.469Z,61.50
2018-04-12T07:17:26.381Z,62.30
2018-04-12T07:19:19.641Z,56.70
2018-04-12T07:20:19.576Z,57.20
2018-04-12T07:22:12.970Z,54.90
2018-04-12T07:23:12.773Z,52.30
2018-04-12T07:25:06.163Z,51.90
2018-04-12T07:26:05.963Z,53.60
2018-04-12T07:27:59.218Z,54.80
2018-04-12T07:28:59.151Z,49.80
2018-04-12T07:30:52.436Z,50.40
2018-04-12T07:31:52.351Z,53.10
2018-04-12T07:33:45.609Z,52.60
2018-04-12T07:34:45.541Z,52.20
2018-04-12T07:36:38.819Z,53.00
2018-04-12T07:37:38.735Z,49.50
2018-04-12T07:39:31.995Z,50.90
2018-04-12T07:40:31.927Z,46.30
2018-04-12T07:42:25.207Z,52.90
2018-04-12T07:43:25.126Z,46.90
2018-04-12T07:45:18.434Z,52.70
2018-04-12T07:46:18.347Z,49.70
2018-04-12T07:48:11.722Z,48.70
2018-04-12T07:49:11.542Z,52.70
2018-04-12T07:51:04.939Z,49.50
2018-04-12T07:52:04.738Z,48.40
2018-04-12T07:53:58.012Z,46.70
2018-04-12T07:54:57.932Z,45.20
2018-04-12T07:56:51.834Z,45.00
2018-04-12T07:57:51.128Z,43.80
2018-04-12T07:59:44.420Z,47.60
2018-04-12T08:00:44.353Z,44.10
2018-04-12T08:02:37.746Z,45.20
2018-04-12T08:03:37.547Z,47.50
2018-04-12T08:05:30.835Z,52.40
2018-04-12T08:06:30.751Z,48.30
2018-04-12T08:08:24.128Z,46.60
2018-04-12T08:09:23.945Z,49.00
2018-04-12T08:11:17.225Z,49.90
2018-04-12T08:12:17.141Z,49.40
2018-04-12T08:14:10.519Z,48.40
2018-04-12T08:15:10.350Z,52.40
2018-04-12T08:17:03.629Z,49.60
2018-04-12T08:18:03.549Z,51.00
2018-04-12T08:19:56.925Z,46.00
2018-04-12T08:20:56.742Z,45.30
2018-04-12T08:22:50.019Z,46.70
2018-04-12T08:23:49.938Z,50.40
2018-04-12T08:25:43.334Z,49.60
2018-04-12T08:26:43.134Z,48.90
2018-04-12T08:28:36.415Z,44.60
2018-04-12T08:29:36.351Z,46.40
2018-04-12T08:31:29.745Z,47.70
2018-04-12T08:32:29.551Z,47.40
2018-04-12T08:34:22.923Z,44.10
2018-04-12T08:35:22.741Z,43.90
2018-04-12T08:37:16.137Z,50.40
2018-04-12T08:38:15.938Z,42.60
2018-04-12T08:40:09.316Z,48.50
2018-04-12T08:41:09.133Z,43.20
2018-04-12T08:43:02.442Z,41.70
2018-04-12T08:44:02.359Z,41.30
2018-04-12T08:45:55.641Z,41.50
2018-04-12T08:46:55.561Z,40.80
2018-04-12T08:48:48.929Z,40.40
2018-04-12T08:49:48.747Z,41.30
2018-04-12T08:51:42.027Z,46.80
2018-04-12T08:52:41.949Z,44.00
2018-04-12T08:54:35.205Z,45.10
2018-04-12T08:55:35.141Z,42.80
2018-04-12T08:57:28.537Z,41.10
2018-04-12T08:58:28.359Z,41.70
2018-04-12T09:00:21.612Z,39.40
2018-04-12T09:01:21.560Z,39.20
2018-04-12T09:03:14.942Z,41.40
2018-04-12T09:04:14.743Z,39.30
2018-04-12T09:06:08.023Z,40.40
2018-04-12T09:07:07.940Z,39.00
2018-04-12T09:09:01.200Z,38.20
2018-04-12T09:10:01.134Z,40.90
2018-04-12T09:11:54.438Z,38.30
2018-04-12T09:12:54.359Z,41.20
2018-04-12T09:14:47.615Z,39.10
2018-04-12T09:15:47.552Z,39.40
2018-04-12T09:17:40.946Z,42.90
2018-04-12T09:18:40.749Z,40.80
2018-04-12T09:20:34.011Z,40.30
2018-04-12T09:21:33.947Z,39.00
2018-04-12T09:23:27.238Z,39.60
2018-04-12T09:24:27.145Z,38.20
2018-04-12T09:26:20.541Z,41.60
2018-04-12T09:27:20.353Z,41.60
2018-04-12T09:29:13.732Z,38.60
2018-04-12T09:30:13.559Z,38.70
2018-04-12T09:32:06.879Z,39.00
2018-04-12T09:33:06.761Z,39.10
2018-04-12T09:35:00.133Z,34.30
2018-04-12T09:35:59.970Z,36.30
2018-04-12T09:37:53.248Z,36.80
2018-04-12T09:38:53.167Z,39.10
2018-04-12T09:40:46.548Z,34.50
2018-04-12T09:41:46.369Z,34.00
2018-04-12T09:43:39.665Z,35.50
2018-04-12T09:44:39.582Z,38.70
2018-04-12T09:46:32.867Z,39.00
2018-04-12T09:47:32.785Z,39.60
2018-04-12T09:49:26.250Z,35.00
2018-04-12T09:50:25.992Z,33.40
2018-04-12T09:52:19.278Z,39.20
2018-04-12T09:53:19.196Z,38.30
2018-04-12T09:55:12.577Z,40.60
2018-04-12T09:56:12.399Z,37.50
2018-04-12T09:58:05.685Z,37.00
2018-04-12T09:59:05.602Z,38.30
2018-04-12T10:00:58.876Z,37.70
2018-04-12T10:01:58.813Z,33.60
2018-04-12T10:03:53.100Z,40.20
2018-04-12T10:04:53.021Z,33.90
2018-04-12T10:06:46.415Z,37.40
2018-04-12T10:07:46.223Z,38.10
2018-04-12T10:09:39.603Z,41.40
2018-04-12T10:10:39.429Z,40.50
2018-04-12T10:12:32.711Z,37.90
2018-04-12T10:13:32.633Z,37.70
2018-04-12T10:15:26.014Z,36.00
2018-04-12T10:16:25.839Z,33.10
2018-04-12T10:18:19.126Z,33.80
2018-04-12T10:19:19.047Z,33.60
2018-04-12T10:21:12.430Z,38.00
2018-04-12T10:22:12.362Z,36.90
2018-04-12T10:24:05.757Z,34.60
2018-04-12T10:25:05.578Z,35.40
2018-04-12T10:26:58.856Z,32.50
2018-04-12T10:27:58.773Z,38.20
2018-04-12T10:29:52.041Z,35.90
2018-04-12T10:30:51.981Z,30.70
2018-04-12T10:32:45.328Z,37.30
2018-04-12T10:33:45.186Z,35.10
2018-04-12T10:35:38.567Z,32.60
2018-04-12T10:36:38.393Z,33.10
2018-04-12T10:38:31.682Z,33.90
2018-04-12T10:39:31.605Z,33.70
2018-04-12T10:41:24.987Z,31.90
2018-04-12T10:42:24.811Z,33.50
2018-04-12T10:44:18.143Z,31.30
2018-04-12T10:45:18.026Z,30.70
2018-04-12T10:47:11.312Z,34.60
2018-04-12T10:48:11.237Z,31.40
2018-04-12T10:50:04.621Z,32.10
2018-04-12T10:51:04.456Z,32.90
2018-04-12T10:52:57.746Z,32.70
2018-04-12T10:53:57.669Z,32.90
2018-04-12T10:55:50.940Z,32.70
2018-04-12T10:56:50.877Z,29.90
2018-04-12T10:58:44.171Z,30.10
2018-04-12T10:59:44.094Z,33.20
2018-04-12T11:01:37.481Z,32.20
2018-04-12T11:02:37.308Z,33.40
2018-04-12T11:04:30.600Z,32.70
2018-04-12T11:05:30.523Z,33.40
2018-04-12T11:07:23.816Z,33.20
2018-04-12T11:08:23.740Z,38.10
2018-04-12T11:10:17.016Z,34.20
2018-04-12T11:11:16.957Z,32.80
2018-04-12T11:13:10.252Z,33.80
2018-04-12T11:14:10.173Z,32.70
2018-04-12T11:16:03.447Z,35.00
2018-04-12T11:17:03.389Z,35.30
2018-04-12T11:18:56.793Z,30.90
2018-04-12T11:19:56.625Z,34.20
2018-04-12T11:21:49.883Z,34.20
2018-04-12T11:22:49.817Z,34.80
2018-04-12T11:24:44.116Z,32.00
2018-04-12T11:25:44.039Z,34.30
2018-04-12T11:27:37.329Z,33.40
2018-04-12T11:28:37.264Z,36.40
2018-04-12T11:30:30.626Z,33.80
2018-04-12T11:31:30.451Z,32.20
2018-04-12T11:33:23.853Z,35.80
2018-04-12T11:34:23.713Z,34.80
2018-04-12T11:36:16.936Z,33.80
2018-04-12T11:37:16.873Z,31.60
2018-04-12T11:39:10.174Z,33.70
2018-04-12T11:40:10.095Z,36.30
2018-04-12T11:42:03.365Z,35.20
2018-04-12T11:43:03.305Z,34.90
2018-04-12T11:44:56.707Z,35.20
2018-04-12T11:45:56.515Z,38.00
2018-04-12T11:47:49.918Z,33.60
2018-04-12T11:48:49.725Z,36.50
2018-04-12T11:50:42.999Z,40.00
2018-04-12T11:51:42.935Z,39.90
2018-04-12T11:53:36.337Z,37.20
2018-04-12T11:54:36.142Z,36.30
2018-04-12T11:56:29.544Z,35.70
2018-04-12T11:57:29.352Z,36.60
2018-04-12T11:59:22.638Z,38.00
2018-04-12T12:00:22.558Z,37.10
2018-04-12T12:02:15.944Z,37.50
2018-04-12T12:03:15.766Z,37.50
2018-04-12T12:05:09.054Z,39.00
2018-04-12T12:06:08.982Z,35.50
2018-04-12T12:08:02.435Z,39.50
2018-04-12T12:09:02.357Z,40.40
2018-04-12T12:10:55.743Z,42.50
2018-04-12T12:11:55.564Z,42.50
2018-04-12T12:13:48.881Z,41.70
2018-04-12T12:14:48.802Z,38.10
2018-04-12T12:16:42.184Z,40.80
2018-04-12T12:17:42.059Z,40.60
2018-04-12T12:19:35.298Z,45.50
2018-04-12T12:20:35.220Z,47.00
2018-04-12T12:22:28.605Z,40.10
2018-04-12T12:23:28.450Z,44.40
2018-04-12T12:25:21.737Z,42.80
2018-04-12T12:26:21.657Z,42.10
2018-04-12T12:28:15.059Z,41.00
2018-04-12T12:29:14.887Z,44.90
2018-04-12T12:31:08.156Z,47.20
2018-04-12T12:32:08.094Z,42.10
2018-04-12T12:34:01.995Z,42.30
2018-04-12T12:35:01.304Z,44.30
2018-04-12T12:36:54.573Z,44.50
2018-04-12T12:37:54.516Z,44.80
2018-04-12T12:39:47.802Z,45.80
2018-04-12T12:40:47.722Z,46.00
2018-04-12T12:42:40.990Z,47.90
2018-04-12T12:43:40.930Z,52.20
2018-04-12T12:45:34.218Z,47.20
2018-04-12T12:46:34.141Z,42.90
2018-04-12T12:48:27.427Z,44.90
2018-04-12T12:49:27.353Z,44.30
2018-04-12T12:51:20.619Z,42.20
2018-04-12T12:52:20.560Z,43.90
2018-04-12T12:54:13.847Z,41.70
2018-04-12T12:55:13.768Z,43.80
2018-04-12T12:57:07.040Z,43.20
2018-04-12T12:58:06.979Z,45.60
2018-04-12T13:00:00.385Z,48.60
2018-04-12T13:01:00.261Z,46.90
2018-04-12T13:02:53.528Z,48.20
2018-04-12T13:03:53.468Z,49.10
2018-04-12T13:05:46.871Z,46.90
2018-04-12T13:06:46.690Z,49.90
2018-04-12T13:08:40.076Z,46.80
2018-04-12T13:09:39.888Z,47.90
2018-04-12T13:11:33.276Z,46.70
2018-04-12T13:12:33.100Z,52.40
2018-04-12T13:14:26.499Z,46.00
2018-04-12T13:15:26.311Z,48.60
2018-04-12T13:17:19.593Z,52.20
2018-04-12T13:18:19.526Z,46.80
2018-04-12T13:20:12.810Z,45.40
2018-04-12T13:21:12.730Z,45.10
2018-04-12T13:23:05.998Z,45.60
2018-04-12T13:24:05.938Z,42.90
2018-04-12T13:25:59.252Z,48.70
2018-04-12T13:26:59.173Z,46.70
2018-04-12T13:28:52.459Z,45.90
2018-04-12T13:29:52.381Z,47.90
2018-04-12T13:31:45.762Z,46.40
2018-04-12T13:32:45.599Z,44.50
2018-04-12T13:34:38.880Z,45.30
2018-04-12T13:35:38.808Z,45.30
2018-04-12T13:37:32.066Z,48.20
2018-04-12T13:38:32.004Z,50.30
2018-04-12T13:40:25.289Z,46.20
2018-04-12T13:41:25.210Z,47.70
2018-04-12T13:43:18.597Z,47.20
2018-04-12T13:44:18.421Z,46.50
2018-04-12T13:46:11.703Z,46.60
2018-04-12T13:47:11.625Z,47.70
2018-04-12T13:49:04.910Z,47.70
2018-04-12T13:50:04.832Z,47.90
2018-04-12T13:51:58.100Z,50.20
2018-04-12T13:52:58.039Z,46.90
2018-04-12T13:54:51.336Z,46.70
2018-04-12T13:55:51.248Z,50.70
2018-04-12T13:57:44.519Z,49.90
2018-04-12T13:58:44.456Z,48.80
2018-04-12T14:00:37.857Z,44.60
2018-04-12T14:01:37.668Z,44.60
2018-04-12T14:03:31.052Z,50.20
2018-04-12T14:04:30.870Z,51.30
2018-04-12T14:06:24.272Z,47.10
2018-04-12T14:07:24.079Z,46.90
2018-04-12T14:09:17.368Z,46.20
2018-04-12T14:10:17.290Z,47.40
2018-04-12T14:12:10.559Z,48.90
2018-04-12T14:13:10.497Z,48.00
2018-04-12T14:15:03.900Z,52.50
2018-04-12T14:16:03.706Z,49.60
2018-04-12T14:17:57.041Z,49.80
2018-04-12T14:18:56.916Z,53.60
2018-04-12T14:20:50.203Z,50.30
2018-04-12T14:21:50.124Z,49.60
2018-04-12T14:23:43.393Z,51.00
2018-04-12T14:24:43.334Z,50.50
2018-04-12T14:26:36.619Z,49.20
2018-04-12T14:27:36.543Z,52.40
2018-04-12T14:29:29.943Z,49.70
2018-04-12T14:30:29.752Z,47.40
2018-04-12T14:32:23.024Z,50.80
2018-04-12T14:33:22.961Z,50.80
2018-04-12T14:35:16.252Z,52.80
2018-04-12T14:36:16.235Z,51.90
2018-04-12T14:38:09.555Z,54.50
2018-04-12T14:39:09.384Z,50.60
2018-04-12T14:41:03.286Z,50.60
2018-04-12T14:42:02.596Z,45.80
2018-04-12T14:43:56.718Z,58.50
2018-04-12T14:44:56.659Z,47.30
2018-04-12T14:46:49.949Z,49.80
2018-04-12T14:47:49.871Z,46.40
2018-04-12T14:49:43.163Z,50.60
2018-04-12T14:50:43.103Z,52.90
2018-04-12T14:52:36.468Z,53.10
2018-04-12T14:53:36.296Z,49.30
2018-04-12T14:55:29.698Z,49.40
2018-04-12T14:56:29.507Z,48.80
2018-04-12T14:58:22.783Z,53.10
2018-04-12T14:59:22.720Z,51.80
2018-04-12T15:01:16.121Z,49.80
2018-04-12T15:02:15.944Z,50.80
2018-04-12T15:04:09.325Z,49.10
2018-04-12T15:05:09.156Z,50.60
2018-04-12T15:07:02.447Z,47.80
2018-04-12T15:08:02.368Z,48.00
2018-04-12T15:09:55.779Z,49.30
2018-04-12T15:10:55.589Z,52.00
2018-04-12T15:12:48.975Z,52.90
2018-04-12T15:13:48.804Z,48.60
2018-04-12T15:15:42.094Z,48.30
2018-04-12T15:16:42.017Z,54.60
2018-04-12T15:18:35.401Z,51.00
2018-04-12T15:19:35.236Z,49.40
2018-04-12T15:21:28.519Z,51.80
2018-04-12T15:22:28.442Z,54.00
2018-04-12T15:24:21.713Z,52.30
2018-04-12T15:25:21.655Z,50.20
2018-04-12T15:27:15.059Z,49.60
2018-04-12T15:28:14.869Z,55.20
2018-04-12T15:30:08.272Z,54.30
2018-04-12T15:31:08.082Z,57.70
2018-04-12T15:33:01.374Z,50.60
2018-04-12T15:34:01.296Z,54.40
2018-04-12T15:35:54.698Z,54.70
2018-04-12T15:36:54.557Z,50.50
2018-04-12T15:38:47.831Z,58.90
2018-04-12T15:39:47.776Z,61.80
2018-04-12T15:41:41.061Z,47.40
2018-04-12T15:42:40.983Z,51.80
2018-04-12T15:44:34.316Z,56.90
2018-04-12T15:45:34.259Z,50.80
2018-04-12T15:47:27.548Z,48.90
2018-04-12T15:48:27.471Z,57.90
2018-04-12T15:50:20.762Z,52.40
2018-04-12T15:51:20.685Z,52.20
2018-04-12T15:53:13.955Z,51.60
2018-04-12T15:54:13.896Z,50.70
2018-04-12T15:56:07.187Z,51.50
2018-04-12T15:57:07.105Z,54.20
2018-04-12T15:59:00.378Z,53.50
2018-04-12T16:00:00.318Z,53.50
2018-04-12T16:01:53.608Z,51.90
2018-04-12T16:02:53.529Z,50.90
2018-04-12T16:04:46.799Z,52.30
2018-04-12T16:05:46.738Z,52.90
2018-04-12T16:07:40.028Z,55.20
2018-04-12T16:08:39.949Z,53.00
2018-04-12T16:10:33.240Z,53.50
2018-04-12T16:11:33.162Z,52.20
2018-04-12T16:13:26.430Z,55.70
2018-04-12T16:14:26.371Z,51.80
2018-04-12T16:16:19.677Z,55.00
2018-04-12T16:17:19.589Z,52.90
2018-04-12T16:19:12.972Z,51.60
2018-04-12T16:20:12.809Z,57.00
2018-04-12T16:22:06.106Z,53.80
2018-04-12T16:23:06.026Z,50.50
2018-04-12T16:24:59.306Z,50.80
2018-04-12T16:25:59.246Z,53.20
2018-04-12T16:27:52.544Z,48.60
2018-04-12T16:28:52.465Z,51.60
2018-04-12T16:30:45.763Z,54.60
2018-04-12T16:31:45.684Z,54.60
2018-04-12T16:33:38.964Z,54.30
2018-04-12T16:34:38.903Z,57.10
2018-04-12T16:36:32.203Z,51.20
2018-04-12T16:37:32.124Z,56.80
2018-04-12T16:39:25.402Z,57.90
2018-04-12T16:40:25.342Z,54.90
2018-04-12T16:42:18.630Z,53.00
2018-04-12T16:43:18.551Z,59.10
2018-04-12T16:45:11.869Z,54.60
2018-04-12T16:46:11.761Z,58.20
2018-04-12T16:48:05.052Z,58.40
2018-04-12T16:49:04.971Z,54.10
2018-04-12T16:50:58.360Z,71.50
2018-04-12T16:51:58.256Z,75.00
2018-04-12T16:53:51.528Z,68.10
2018-04-12T16:54:51.466Z,70.70
2018-04-12T16:56:44.758Z,72.30
2018-04-12T16:57:44.678Z,59.30
2018-04-12T16:59:37.946Z,48.30
2018-04-12T17:00:37.888Z,48.40
2018-04-12T17:02:31.174Z,56.30
2018-04-12T17:03:31.092Z,58.60
2018-04-12T17:05:24.358Z,49.60
2018-04-12T17:06:24.297Z,44.50
2018-04-12T17:08:17.579Z,50.80
2018-04-12T17:09:17.498Z,45.90
2018-04-12T17:11:10.795Z,38.50
2018-04-12T17:12:10.738Z,41.50
2018-04-12T17:14:03.975Z,43.80
2018-04-12T17:15:03.915Z,49.40
2018-04-12T17:16:57.196Z,39.60
2018-04-12T17:17:57.113Z,35.10
2018-04-12T17:19:50.492Z,36.50
2018-04-12T17:20:50.314Z,38.80
2018-04-12T17:22:43.599Z,32.50
2018-04-12T17:23:43.513Z,32.10
2018-04-12T17:25:36.776Z,29.50
2018-04-12T17:26:36.713Z,29.40
2018-04-12T17:28:29.994Z,25.30
2018-04-12T17:29:29.912Z,24.90
2018-04-12T17:31:23.194Z,24.10
2018-04-12T17:32:23.111Z,25.30
2018-04-12T17:34:16.373Z,18.70
2018-04-12T17:35:16.312Z,16.60
2018-04-12T17:37:09.600Z,17.10
2018-04-12T17:38:09.514Z,18.90
2018-04-12T17:40:02.783Z,17.70
2018-04-12T17:41:02.715Z,24.30
2018-04-12T17:42:56.903Z,22.80
2018-04-12T17:43:56.775Z,21.90
2018-04-12T17:45:50.039Z,20.20
2018-04-12T17:46:49.975Z,17.50
2018-04-12T17:48:43.263Z,21.20
2018-04-12T17:49:43.174Z,20.50
2018-04-12T17:51:36.460Z,20.00
2018-04-12T17:52:36.376Z,21.20
2018-04-12T17:54:29.635Z,21.10
2018-04-12T17:55:29.576Z,22.90
2018-04-12T17:57:22.863Z,22.90
2018-04-12T17:58:22.775Z,21.80
2018-04-12T18:00:16.044Z,24.20
2018-04-12T18:01:15.977Z,23.50
2018-04-12T18:03:09.259Z,19.70
2018-04-12T18:04:09.179Z,19.30
2018-04-12T18:06:02.481Z,20.60
2018-04-12T18:07:02.375Z,23.00
2018-04-12T18:08:55.659Z,22.30
2018-04-12T18:09:55.574Z,25.60
2018-04-12T18:11:48.857Z,24.80
2018-04-12T18:12:48.775Z,27.10
2018-04-12T18:14:42.037Z,24.10
2018-04-12T18:15:41.975Z,25.80
2018-04-12T18:17:35.259Z,28.10
2018-04-12T18:18:35.177Z,30.10
2018-04-12T18:20:28.453Z,30.20
2018-04-12T18:21:28.391Z,29.60
2018-04-12T18:23:21.672Z,30.40
2018-04-12T18:24:21.590Z,31.20
2018-04-12T18:26:14.878Z,32.40
2018-04-12T18:27:14.802Z,33.10
2018-04-12T18:29:08.201Z,34.80
2018-04-12T18:30:08.005Z,31.80
2018-04-12T18:32:01.290Z,32.70
2018-04-12T18:33:01.207Z,35.20
2018-04-12T18:34:54.468Z,29.10